sensor_id;sensor_type;location;lat;lon;timestamp;P1;durP1;ratioP1;P2;durP2;ratioP2
47239;SDS011;32978;53.586;10.052;2023-05-29T00:04:10;11.30;;;4.30;;
47239;SDS011;32978;53.586;10.052;2023-05-29T00:09:08;12.57;;;5.72;;
47239;SDS011;32978;53.586;10.052;2023-05-29T00:14:05;15.93;;;4.50;;
47239;SDS011;32978;53.586;10.052;2023-05-29T00:19:01;10.82;;;4.82;;
47239;SDS011;32978;53.586;10.052;2023-05-29T00:23:58;10.00;;;4.97;;
47239;SDS011;32978;53.586;10.052;2023-05-29T00:28:54;9.75;;;4.82;;
47239;SDS011;32978;53.586;10.052;2023-05-29T00:33:50;14.02;;;4.47;;
47239;SDS011;32978;53.586;10.052;2023-05-29T00:38:47;14.25;;;4.93;;
47239;SDS011;32978;53.586;10.052;2023-05-29T00:43:43;16.83;;;5.57;;
47239;SDS011;32978;53.586;10.052;2023-05-29T00:48:43;10.48;;;5.28;;
47239;SDS011;32978;53.586;10.052;2023-05-29T00:53:41;11.80;;;5.37;;
47239;SDS011;32978;53.586;10.052;2023-05-29T00:58:38;14.95;;;4.60;;
47239;SDS011;32978;53.586;10.052;2023-05-29T01:08:46;11.65;;;5.53;;
47239;SDS011;32978;53.586;10.052;2023-05-29T01:13:42;13.45;;;4.72;;
47239;SDS011;32978;53.586;10.052;2023-05-29T01:18:41;13.48;;;4.90;;
47239;SDS011;32978;53.586;10.052;2023-05-29T01:34:13;18.30;;;5.50;;
47239;SDS011;32978;53.586;10.052;2023-05-29T01:39:09;12.98;;;4.45;;
47239;SDS011;32978;53.586;10.052;2023-05-29T01:44:07;14.27;;;5.55;;
47239;SDS011;32978;53.586;10.052;2023-05-29T01:49:04;10.90;;;4.90;;
47239;SDS011;32978;53.586;10.052;2023-05-29T01:54:01;15.25;;;4.82;;
47239;SDS011;32978;53.586;10.052;2023-05-29T01:58:58;10.93;;;4.75;;
47239;SDS011;32978;53.586;10.052;2023-05-29T02:03:55;19.73;;;6.05;;
47239;SDS011;32978;53.586;10.052;2023-05-29T02:08:51;18.75;;;5.35;;
47239;SDS011;32978;53.586;10.052;2023-05-29T02:13:48;12.75;;;5.13;;
47239;SDS011;32978;53.586;10.052;2023-05-29T02:18:44;17.35;;;5.80;;
47239;SDS011;32978;53.586;10.052;2023-05-29T02:23:40;17.13;;;5.25;;
47239;SDS011;32978;53.586;10.052;2023-05-29T02:28:37;18.90;;;5.47;;
47239;SDS011;32978;53.586;10.052;2023-05-29T02:33:33;17.95;;;5.85;;
47239;SDS011;32978;53.586;10.052;2023-05-29T02:38:29;13.80;;;5.20;;
47239;SDS011;32978;53.586;10.052;2023-05-29T02:43:26;12.10;;;4.68;;
47239;SDS011;32978;53.586;10.052;2023-05-29T02:48:22;16.30;;;5.40;;
47239;SDS011;32978;53.586;10.052;2023-05-29T02:53:18;21.13;;;6.18;;
47239;SDS011;32978;53.586;10.052;2023-05-29T02:58:14;16.40;;;5.60;;
47239;SDS011;32978;53.586;10.052;2023-05-29T03:03:12;15.20;;;5.47;;
47239;SDS011;32978;53.586;10.052;2023-05-29T03:08:09;14.07;;;5.38;;
47239;SDS011;32978;53.586;10.052;2023-05-29T03:13:06;22.17;;;6.72;;
47239;SDS011;32978;53.586;10.052;2023-05-29T03:18:02;18.60;;;6.47;;
47239;SDS011;32978;53.586;10.052;2023-05-29T03:22:59;18.15;;;6.35;;
47239;SDS011;32978;53.586;10.052;2023-05-29T03:27:55;12.45;;;5.65;;
47239;SDS011;32978;53.586;10.052;2023-05-29T03:32:51;18.60;;;5.15;;
47239;SDS011;32978;53.586;10.052;2023-05-29T03:37:48;17.30;;;5.07;;
47239;SDS011;32978;53.586;10.052;2023-05-29T03:42:44;15.48;;;6.10;;
47239;SDS011;32978;53.586;10.052;2023-05-29T03:47:40;15.75;;;5.38;;
47239;SDS011;32978;53.586;10.052;2023-05-29T03:52:37;16.08;;;5.65;;
47239;SDS011;32978;53.586;10.052;2023-05-29T03:57:33;15.25;;;5.28;;
47239;SDS011;32978;53.586;10.052;2023-05-29T04:02:29;14.75;;;5.57;;
47239;SDS011;32978;53.586;10.052;2023-05-29T04:07:26;22.63;;;7.03;;
47239;SDS011;32978;53.586;10.052;2023-05-29T04:12:22;17.00;;;6.35;;
47239;SDS011;32978;53.586;10.052;2023-05-29T04:17:18;17.58;;;5.78;;
47239;SDS011;32978;53.586;10.052;2023-05-29T04:22:15;10.77;;;5.40;;
47239;SDS011;32978;53.586;10.052;2023-05-29T04:27:11;13.95;;;5.38;;
47239;SDS011;32978;53.586;10.052;2023-05-29T04:32:09;20.30;;;5.57;;
47239;SDS011;32978;53.586;10.052;2023-05-29T04:37:07;16.48;;;5.57;;
47239;SDS011;32978;53.586;10.052;2023-05-29T04:42:03;15.35;;;5.97;;
47239;SDS011;32978;53.586;10.052;2023-05-29T04:47:00;20.85;;;7.03;;
47239;SDS011;32978;53.586;10.052;2023-05-29T04:51:59;15.13;;;6.10;;
47239;SDS011;32978;53.586;10.052;2023-05-29T04:56:56;17.85;;;6.40;;
47239;SDS011;32978;53.586;10.052;2023-05-29T05:01:52;20.88;;;6.60;;
47239;SDS011;32978;53.586;10.052;2023-05-29T05:06:49;16.45;;;6.47;;
47239;SDS011;32978;53.586;10.052;2023-05-29T05:11:50;19.80;;;7.20;;
47239;SDS011;32978;53.586;10.052;2023-05-29T05:16:46;17.02;;;6.28;;
47239;SDS011;32978;53.586;10.052;2023-05-29T05:21:42;20.02;;;6.45;;
47239;SDS011;32978;53.586;10.052;2023-05-29T05:26:39;15.07;;;6.88;;
47239;SDS011;32978;53.586;10.052;2023-05-29T05:31:35;18.65;;;7.65;;
47239;SDS011;32978;53.586;10.052;2023-05-29T05:36:31;21.38;;;6.53;;
47239;SDS011;32978;53.586;10.052;2023-05-29T05:41:28;15.35;;;6.82;;
47239;SDS011;32978;53.586;10.052;2023-05-29T05:46:25;24.75;;;9.73;;
47239;SDS011;32978;53.586;10.052;2023-05-29T05:51:23;13.10;;;6.43;;
47239;SDS011;32978;53.586;10.052;2023-05-29T05:56:20;19.42;;;6.55;;
47239;SDS011;32978;53.586;10.052;2023-05-29T06:01:16;19.58;;;7.85;;
47239;SDS011;32978;53.586;10.052;2023-05-29T06:06:12;17.80;;;6.45;;
47239;SDS011;32978;53.586;10.052;2023-05-29T06:11:09;15.70;;;6.65;;
47239;SDS011;32978;53.586;10.052;2023-05-29T06:16:05;18.20;;;6.88;;
47239;SDS011;32978;53.586;10.052;2023-05-29T06:21:02;15.20;;;6.72;;
47239;SDS011;32978;53.586;10.052;2023-05-29T06:25:59;18.40;;;6.93;;
47239;SDS011;32978;53.586;10.052;2023-05-29T06:30:55;17.13;;;7.10;;
47239;SDS011;32978;53.586;10.052;2023-05-29T06:35:52;17.05;;;6.95;;
47239;SDS011;32978;53.586;10.052;2023-05-29T06:40:51;17.60;;;6.90;;
47239;SDS011;32978;53.586;10.052;2023-05-29T06:45:48;15.52;;;6.75;;
47239;SDS011;32978;53.586;10.052;2023-05-29T06:50:44;19.58;;;7.40;;
47239;SDS011;32978;53.586;10.052;2023-05-29T06:55:40;21.05;;;6.45;;
47239;SDS011;32978;53.586;10.052;2023-05-29T07:00:40;14.63;;;6.38;;
47239;SDS011;32978;53.586;10.052;2023-05-29T07:06:12;18.05;;;5.97;;
47239;SDS011;32978;53.586;10.052;2023-05-29T07:11:08;15.80;;;6.38;;
47239;SDS011;32978;53.586;10.052;2023-05-29T07:16:05;22.25;;;7.65;;
47239;SDS011;32978;53.586;10.052;2023-05-29T07:21:12;20.45;;;6.72;;
47239;SDS011;32978;53.586;10.052;2023-05-29T07:26:08;15.60;;;7.00;;
47239;SDS011;32978;53.586;10.052;2023-05-29T07:31:04;17.83;;;7.03;;
47239;SDS011;32978;53.586;10.052;2023-05-29T07:36:01;13.93;;;6.97;;
47239;SDS011;32978;53.586;10.052;2023-05-29T07:40:57;20.45;;;7.47;;
47239;SDS011;32978;53.586;10.052;2023-05-29T07:45:54;17.42;;;6.40;;
47239;SDS011;32978;53.586;10.052;2023-05-29T07:50:51;19.05;;;7.03;;
47239;SDS011;32978;53.586;10.052;2023-05-29T07:55:48;15.25;;;6.70;;
47239;SDS011;32978;53.586;10.052;2023-05-29T08:00:44;17.60;;;6.18;;
47239;SDS011;32978;53.586;10.052;2023-05-29T08:05:41;14.45;;;6.57;;
47239;SDS011;32978;53.586;10.052;2023-05-29T08:10:37;19.40;;;7.63;;
47239;SDS011;32978;53.586;10.052;2023-05-29T08:15:34;16.05;;;6.85;;
47239;SDS011;32978;53.586;10.052;2023-05-29T08:20:30;19.02;;;6.97;;
47239;SDS011;32978;53.586;10.052;2023-05-29T08:25:27;14.90;;;6.70;;
47239;SDS011;32978;53.586;10.052;2023-05-29T08:30:24;16.60;;;7.05;;
47239;SDS011;32978;53.586;10.052;2023-05-29T08:35:21;12.93;;;7.47;;
47239;SDS011;32978;53.586;10.052;2023-05-29T08:40:18;11.48;;;6.57;;
47239;SDS011;32978;53.586;10.052;2023-05-29T08:45:15;20.02;;;7.28;;
47239;SDS011;32978;53.586;10.052;2023-05-29T08:50:13;17.27;;;7.78;;
47239;SDS011;32978;53.586;10.052;2023-05-29T08:55:11;16.08;;;7.13;;
47239;SDS011;32978;53.586;10.052;2023-05-29T09:00:13;16.25;;;6.82;;
47239;SDS011;32978;53.586;10.052;2023-05-29T09:05:14;16.05;;;6.68;;
47239;SDS011;32978;53.586;10.052;2023-05-29T09:10:10;14.45;;;6.88;;
47239;SDS011;32978;53.586;10.052;2023-05-29T09:15:16;16.85;;;6.50;;
47239;SDS011;32978;53.586;10.052;2023-05-29T09:20:15;16.75;;;7.40;;
47239;SDS011;32978;53.586;10.052;2023-05-29T09:25:12;12.57;;;6.47;;
47239;SDS011;32978;53.586;10.052;2023-05-29T09:30:09;14.90;;;7.25;;
47239;SDS011;32978;53.586;10.052;2023-05-29T09:35:24;20.38;;;7.65;;
47239;SDS011;32978;53.586;10.052;2023-05-29T09:40:20;14.57;;;7.05;;
47239;SDS011;32978;53.586;10.052;2023-05-29T09:45:17;15.23;;;7.60;;
47239;SDS011;32978;53.586;10.052;2023-05-29T09:50:19;17.13;;;6.93;;
47239;SDS011;32978;53.586;10.052;2023-05-29T09:55:20;17.08;;;7.68;;
47239;SDS011;32978;53.586;10.052;2023-05-29T10:00:17;15.52;;;7.45;;
47239;SDS011;32978;53.586;10.052;2023-05-29T10:05:13;15.55;;;6.93;;
47239;SDS011;32978;53.586;10.052;2023-05-29T10:10:13;12.85;;;7.05;;
47239;SDS011;32978;53.586;10.052;2023-05-29T10:15:14;13.98;;;7.70;;
47239;SDS011;32978;53.586;10.052;2023-05-29T10:20:10;12.73;;;7.32;;
47239;SDS011;32978;53.586;10.052;2023-05-29T10:25:09;12.90;;;7.40;;
47239;SDS011;32978;53.586;10.052;2023-05-29T10:30:15;20.92;;;7.68;;
47239;SDS011;32978;53.586;10.052;2023-05-29T10:35:16;13.05;;;7.35;;
47239;SDS011;32978;53.586;10.052;2023-05-29T10:40:14;14.82;;;7.70;;
47239;SDS011;32978;53.586;10.052;2023-05-29T10:45:11;13.35;;;7.75;;
47239;SDS011;32978;53.586;10.052;2023-05-29T10:50:08;12.23;;;7.68;;
47239;SDS011;32978;53.586;10.052;2023-05-29T10:55:05;12.05;;;7.03;;
47239;SDS011;32978;53.586;10.052;2023-05-29T11:00:03;12.70;;;6.78;;
47239;SDS011;32978;53.586;10.052;2023-05-29T11:10:59;9.73;;;6.65;;
47239;SDS011;32978;53.586;10.052;2023-05-29T11:15:37;12.25;;;6.97;;
47239;SDS011;32978;53.586;10.052;2023-05-29T11:20:36;10.30;;;6.80;;
47239;SDS011;32978;53.586;10.052;2023-05-29T11:25:34;10.65;;;6.70;;
47239;SDS011;32978;53.586;10.052;2023-05-29T11:30:31;13.32;;;6.78;;
47239;SDS011;32978;53.586;10.052;2023-05-29T11:35:27;12.60;;;7.15;;
47239;SDS011;32978;53.586;10.052;2023-05-29T11:40:26;10.52;;;6.50;;
47239;SDS011;32978;53.586;10.052;2023-05-29T11:45:22;10.57;;;7.07;;
47239;SDS011;32978;53.586;10.052;2023-05-29T11:50:23;11.52;;;6.25;;
47239;SDS011;32978;53.586;10.052;2023-05-29T11:55:20;10.70;;;6.90;;
47239;SDS011;32978;53.586;10.052;2023-05-29T12:00:17;15.02;;;7.20;;
47239;SDS011;32978;53.586;10.052;2023-05-29T12:05:15;11.48;;;7.15;;
47239;SDS011;32978;53.586;10.052;2023-05-29T12:10:12;12.68;;;7.32;;
47239;SDS011;32978;53.586;10.052;2023-05-29T12:15:10;10.73;;;6.72;;
47239;SDS011;32978;53.586;10.052;2023-05-29T12:20:07;12.30;;;6.78;;
47239;SDS011;32978;53.586;10.052;2023-05-29T12:25:12;12.02;;;6.95;;
47239;SDS011;32978;53.586;10.052;2023-05-29T12:30:20;11.70;;;7.60;;
47239;SDS011;32978;53.586;10.052;2023-05-29T12:35:28;13.77;;;7.72;;
47239;SDS011;32978;53.586;10.052;2023-05-29T12:40:25;11.93;;;7.70;;
47239;SDS011;32978;53.586;10.052;2023-05-29T12:45:23;9.05;;;6.32;;
47239;SDS011;32978;53.586;10.052;2023-05-29T12:55:18;10.02;;;6.32;;
47239;SDS011;32978;53.586;10.052;2023-05-29T13:00:15;10.45;;;6.80;;
47239;SDS011;32978;53.586;10.052;2023-05-29T13:05:11;12.43;;;7.40;;
47239;SDS011;32978;53.586;10.052;2023-05-29T13:10:08;16.13;;;8.07;;
47239;SDS011;32978;53.586;10.052;2023-05-29T13:15:04;10.70;;;7.10;;
47239;SDS011;32978;53.586;10.052;2023-05-29T13:20:01;12.43;;;6.53;;
47239;SDS011;32978;53.586;10.052;2023-05-29T13:24:58;11.00;;;6.07;;
47239;SDS011;32978;53.586;10.052;2023-05-29T13:29:55;7.93;;;5.72;;
47239;SDS011;32978;53.586;10.052;2023-05-29T13:34:51;9.32;;;5.47;;
47239;SDS011;32978;53.586;10.052;2023-05-29T13:39:48;15.73;;;7.30;;
47239;SDS011;32978;53.586;10.052;2023-05-29T13:44:47;9.35;;;5.72;;
47239;SDS011;32978;53.586;10.052;2023-05-29T13:49:43;9.23;;;6.00;;
47239;SDS011;32978;53.586;10.052;2023-05-29T13:54:40;13.43;;;6.35;;
47239;SDS011;32978;53.586;10.052;2023-05-29T13:59:36;14.20;;;6.15;;
47239;SDS011;32978;53.586;10.052;2023-05-29T14:04:32;10.68;;;6.90;;
47239;SDS011;32978;53.586;10.052;2023-05-29T14:09:29;11.43;;;5.65;;
47239;SDS011;32978;53.586;10.052;2023-05-29T14:14:28;11.32;;;6.60;;
47239;SDS011;32978;53.586;10.052;2023-05-29T14:19:24;12.48;;;6.63;;
47239;SDS011;32978;53.586;10.052;2023-05-29T14:24:21;9.38;;;6.50;;
47239;SDS011;32978;53.586;10.052;2023-05-29T14:29:17;11.20;;;6.05;;
47239;SDS011;32978;53.586;10.052;2023-05-29T14:34:14;14.35;;;7.15;;
47239;SDS011;32978;53.586;10.052;2023-05-29T14:39:10;13.77;;;6.45;;
47239;SDS011;32978;53.586;10.052;2023-05-29T14:44:07;9.05;;;5.65;;
47239;SDS011;32978;53.586;10.052;2023-05-29T14:49:04;8.43;;;6.15;;
47239;SDS011;32978;53.586;10.052;2023-05-29T14:54:01;12.35;;;7.63;;
47239;SDS011;32978;53.586;10.052;2023-05-29T14:58:58;12.10;;;5.90;;
47239;SDS011;32978;53.586;10.052;2023-05-29T15:03:54;10.85;;;6.20;;
47239;SDS011;32978;53.586;10.052;2023-05-29T15:08:51;10.65;;;6.43;;
47239;SDS011;32978;53.586;10.052;2023-05-29T15:13:47;10.45;;;6.00;;
47239;SDS011;32978;53.586;10.052;2023-05-29T15:18:43;11.90;;;6.95;;
47239;SDS011;32978;53.586;10.052;2023-05-29T15:23:40;12.90;;;7.22;;
47239;SDS011;32978;53.586;10.052;2023-05-29T15:28:39;13.30;;;6.65;;
47239;SDS011;32978;53.586;10.052;2023-05-29T15:33:36;12.27;;;6.10;;
47239;SDS011;32978;53.586;10.052;2023-05-29T15:38:32;12.32;;;7.03;;
47239;SDS011;32978;53.586;10.052;2023-05-29T15:43:29;15.27;;;7.07;;
47239;SDS011;32978;53.586;10.052;2023-05-29T15:48:26;14.82;;;8.18;;
47239;SDS011;32978;53.586;10.052;2023-05-29T15:53:22;11.90;;;6.78;;
47239;SDS011;32978;53.586;10.052;2023-05-29T15:58:19;13.13;;;6.63;;
47239;SDS011;32978;53.586;10.052;2023-05-29T16:03:18;11.25;;;6.82;;
47239;SDS011;32978;53.586;10.052;2023-05-29T16:08:15;11.80;;;6.72;;
47239;SDS011;32978;53.586;10.052;2023-05-29T16:13:14;14.90;;;6.85;;
47239;SDS011;32978;53.586;10.052;2023-05-29T16:18:10;11.45;;;6.45;;
47239;SDS011;32978;53.586;10.052;2023-05-29T16:23:07;12.27;;;8.75;;
47239;SDS011;32978;53.586;10.052;2023-05-29T16:28:03;17.27;;;8.20;;
47239;SDS011;32978;53.586;10.052;2023-05-29T16:33:00;11.13;;;7.15;;
47239;SDS011;32978;53.586;10.052;2023-05-29T16:37:59;15.02;;;8.00;;
47239;SDS011;32978;53.586;10.052;2023-05-29T16:42:56;15.07;;;8.00;;
47239;SDS011;32978;53.586;10.052;2023-05-29T16:47:52;9.55;;;6.10;;
47239;SDS011;32978;53.586;10.052;2023-05-29T16:52:48;14.15;;;6.63;;
47239;SDS011;32978;53.586;10.052;2023-05-29T16:57:45;15.93;;;8.07;;
47239;SDS011;32978;53.586;10.052;2023-05-29T17:02:41;14.60;;;7.30;;
47239;SDS011;32978;53.586;10.052;2023-05-29T17:07:38;14.55;;;6.97;;
47239;SDS011;32978;53.586;10.052;2023-05-29T17:12:34;13.63;;;7.25;;
47239;SDS011;32978;53.586;10.052;2023-05-29T17:17:31;19.45;;;7.57;;
47239;SDS011;32978;53.586;10.052;2023-05-29T17:22:27;16.92;;;6.93;;
47239;SDS011;32978;53.586;10.052;2023-05-29T17:27:23;13.13;;;6.63;;
47239;SDS011;32978;53.586;10.052;2023-05-29T17:32:20;17.02;;;7.07;;
47239;SDS011;32978;53.586;10.052;2023-05-29T17:37:16;14.40;;;7.10;;
47239;SDS011;32978;53.586;10.052;2023-05-29T17:42:13;15.95;;;7.25;;
47239;SDS011;32978;53.586;10.052;2023-05-29T17:47:09;12.70;;;6.38;;
47239;SDS011;32978;53.586;10.052;2023-05-29T17:52:05;13.48;;;6.75;;
47239;SDS011;32978;53.586;10.052;2023-05-29T17:57:04;20.15;;;6.22;;
47239;SDS011;32978;53.586;10.052;2023-05-29T18:02:01;10.77;;;6.50;;
47239;SDS011;32978;53.586;10.052;2023-05-29T18:06:58;13.60;;;6.60;;
47239;SDS011;32978;53.586;10.052;2023-05-29T18:11:54;14.80;;;7.25;;
47239;SDS011;32978;53.586;10.052;2023-05-29T18:16:52;13.82;;;6.93;;
47239;SDS011;32978;53.586;10.052;2023-05-29T18:21:49;10.55;;;5.90;;
47239;SDS011;32978;53.586;10.052;2023-05-29T18:26:45;17.63;;;6.18;;
47239;SDS011;32978;53.586;10.052;2023-05-29T18:31:41;13.18;;;6.38;;
47239;SDS011;32978;53.586;10.052;2023-05-29T18:36:38;11.40;;;6.40;;
47239;SDS011;32978;53.586;10.052;2023-05-29T18:41:34;15.45;;;7.07;;
47239;SDS011;32978;53.586;10.052;2023-05-29T18:46:30;14.45;;;6.55;;
47239;SDS011;32978;53.586;10.052;2023-05-29T18:51:27;13.30;;;5.68;;
47239;SDS011;32978;53.586;10.052;2023-05-29T18:56:23;10.52;;;6.22;;
47239;SDS011;32978;53.586;10.052;2023-05-29T19:01:21;9.98;;;5.20;;
47239;SDS011;32978;53.586;10.052;2023-05-29T19:06:28;10.80;;;6.57;;
47239;SDS011;32978;53.586;10.052;2023-05-29T19:11:25;14.82;;;6.90;;
47239;SDS011;32978;53.586;10.052;2023-05-29T19:16:21;16.75;;;8.20;;
47239;SDS011;32978;53.586;10.052;2023-05-29T19:21:20;12.70;;;5.80;;
47239;SDS011;32978;53.586;10.052;2023-05-29T19:26:16;15.90;;;6.82;;
47239;SDS011;32978;53.586;10.052;2023-05-29T19:31:13;12.23;;;6.38;;
47239;SDS011;32978;53.586;10.052;2023-05-29T19:36:09;13.20;;;5.95;;
47239;SDS011;32978;53.586;10.052;2023-05-29T19:41:06;13.60;;;6.05;;
47239;SDS011;32978;53.586;10.052;2023-05-29T19:46:02;15.70;;;6.13;;
47239;SDS011;32978;53.586;10.052;2023-05-29T19:51:02;10.57;;;5.07;;
47239;SDS011;32978;53.586;10.052;2023-05-29T19:55:59;14.75;;;6.10;;
47239;SDS011;32978;53.586;10.052;2023-05-29T20:00:55;14.25;;;7.03;;
47239;SDS011;32978;53.586;10.052;2023-05-29T20:05:52;12.40;;;7.00;;
47239;SDS011;32978;53.586;10.052;2023-05-29T20:10:49;18.45;;;7.78;;
47239;SDS011;32978;53.586;10.052;2023-05-29T20:15:55;14.57;;;7.20;;
47239;SDS011;32978;53.586;10.052;2023-05-29T20:20:51;15.40;;;8.25;;
47239;SDS011;32978;53.586;10.052;2023-05-29T20:25:48;18.70;;;7.40;;
47239;SDS011;32978;53.586;10.052;2023-05-29T20:30:44;15.60;;;6.22;;
47239;SDS011;32978;53.586;10.052;2023-05-29T20:35:40;13.25;;;6.80;;
47239;SDS011;32978;53.586;10.052;2023-05-29T20:40:37;13.27;;;5.80;;
47239;SDS011;32978;53.586;10.052;2023-05-29T20:45:34;20.42;;;7.30;;
47239;SDS011;32978;53.586;10.052;2023-05-29T20:50:32;14.38;;;6.85;;
47239;SDS011;32978;53.586;10.052;2023-05-29T20:55:28;15.77;;;7.05;;
47239;SDS011;32978;53.586;10.052;2023-05-29T21:00:25;19.98;;;6.80;;
47239;SDS011;32978;53.586;10.052;2023-05-29T21:05:21;17.67;;;6.70;;
47239;SDS011;32978;53.586;10.052;2023-05-29T21:10:18;19.45;;;6.95;;
47239;SDS011;32978;53.586;10.052;2023-05-29T21:15:14;12.73;;;6.20;;
47239;SDS011;32978;53.586;10.052;2023-05-29T21:20:10;17.15;;;6.72;;
47239;SDS011;32978;53.586;10.052;2023-05-29T21:25:08;20.20;;;6.68;;
47239;SDS011;32978;53.586;10.052;2023-05-29T21:30:05;20.30;;;7.05;;
47239;SDS011;32978;53.586;10.052;2023-05-29T21:35:03;17.60;;;6.60;;
47239;SDS011;32978;53.586;10.052;2023-05-29T21:40:00;12.95;;;6.22;;
47239;SDS011;32978;53.586;10.052;2023-05-29T21:44:56;18.35;;;6.35;;
47239;SDS011;32978;53.586;10.052;2023-05-29T21:49:53;19.83;;;6.47;;
47239;SDS011;32978;53.586;10.052;2023-05-29T21:54:49;27.63;;;7.55;;
47239;SDS011;32978;53.586;10.052;2023-05-29T21:59:45;21.38;;;7.80;;
47239;SDS011;32978;53.586;10.052;2023-05-29T22:04:41;18.35;;;7.20;;
47239;SDS011;32978;53.586;10.052;2023-05-29T22:09:38;23.10;;;7.35;;
47239;SDS011;32978;53.586;10.052;2023-05-29T22:14:34;19.50;;;8.02;;
47239;SDS011;32978;53.586;10.052;2023-05-29T22:19:31;16.75;;;6.20;;
47239;SDS011;32978;53.586;10.052;2023-05-29T22:24:28;16.45;;;6.40;;
47239;SDS011;32978;53.586;10.052;2023-05-29T22:29:25;16.35;;;6.32;;
47239;SDS011;32978;53.586;10.052;2023-05-29T22:34:21;24.98;;;7.53;;
47239;SDS011;32978;53.586;10.052;2023-05-29T22:39:19;16.02;;;6.75;;
47239;SDS011;32978;53.586;10.052;2023-05-29T22:44:15;21.73;;;7.40;;
47239;SDS011;32978;53.586;10.052;2023-05-29T22:49:15;24.80;;;8.65;;
47239;SDS011;32978;53.586;10.052;2023-05-29T22:54:11;15.98;;;7.97;;
47239;SDS011;32978;53.586;10.052;2023-05-29T22:59:08;19.73;;;7.35;;
47239;SDS011;32978;53.586;10.052;2023-05-29T23:04:04;17.25;;;7.43;;
47239;SDS011;32978;53.586;10.052;2023-05-29T23:09:02;16.58;;;7.60;;
47239;SDS011;32978;53.586;10.052;2023-05-29T23:14:00;16.65;;;7.38;;
47239;SDS011;32978;53.586;10.052;2023-05-29T23:18:56;21.58;;;7.57;;
47239;SDS011;32978;53.586;10.052;2023-05-29T23:23:53;23.27;;;7.38;;
47239;SDS011;32978;53.586;10.052;2023-05-29T23:28:49;20.60;;;7.50;;
47239;SDS011;32978;53.586;10.052;2023-05-29T23:33:45;15.95;;;7.65;;
47239;SDS011;32978;53.586;10.052;2023-05-29T23:38:43;16.42;;;7.82;;
47239;SDS011;32978;53.586;10.052;2023-05-29T23:43:39;15.77;;;7.32;;
47239;SDS011;32978;53.586;10.052;2023-05-29T23:48:35;19.27;;;8.57;;
47239;SDS011;32978;53.586;10.052;2023-05-29T23:53:34;16.85;;;7.25;;
47239;SDS011;32978;53.586;10.052;2023-05-29T23:58:30;18.88;;;7.72;;
